Time,TemperatureF,DewpointF,PressureIn,WindDirection,WindDirectionDegrees,WindSpeedMPH,WindSpeedGustMPH,Humidity,HourlyPrecipIn,Conditions,Clouds,dailyrainin,SoftwareType,DateUTC
2013-06-05 00:05:00,60.8,51.3,30.00,WSW,243,0.0,-999.0,71,0.00,,,0.00,Wunderground v.1.15,2013-06-05 05:05:00,
2013-06-05 00:15:00,60.8,51.7,30.00,West,269,0.0,-999.0,72,0.00,,,0.00,Wunderground v.1.15,2013-06-05 05:15:00,
2013-06-05 00:25:00,61.1,51.2,30.00,NW,315,0.0,-999.0,70,0.00,,,0.00,Wunderground v.1.15,2013-06-05 05:25:00,
2013-06-05 00:30:00,61.3,51.4,30.01,NW,307,0.0,-999.0,70,0.00,,,0.00,Wunderground v.1.15,2013-06-05 05:30:00,
2013-06-05 00:35:00,61.4,51.5,30.01,WNW,293,0.0,-999.0,70,0.00,,,0.00,Wunderground v.1.15,2013-06-05 05:35:00,
2013-06-05 00:45:00,61.3,51.4,30.02,NW,309,0.0,-999.0,70,0.00,,,0.00,Wunderground v.1.15,2013-06-05 05:45:00,
2013-06-05 00:50:00,61.1,51.6,30.02,West,278,0.0,-999.0,71,0.00,,,0.00,Wunderground v.1.15,2013-06-05 05:50:00,
2013-06-05 00:55:00,61.0,51.5,30.02,NW,305,0.0,-999.0,71,0.00,,,0.00,Wunderground v.1.15,2013-06-05 05:55:00,
2013-06-05 01:00:00,60.9,51.4,30.02,NW,319,0.0,-999.0,71,0.00,,,0.00,Wunderground v.1.15,2013-06-05 06:00:00,
2013-06-05 01:10:00,60.5,51.0,30.03,WNW,299,1.0,-999.0,71,0.00,,,0.00,Wunderground v.1.15,2013-06-05 06:10:00,
2013-06-05 01:15:00,60.3,50.1,30.03,NW,304,1.0,-999.0,69,0.00,,,0.00,Wunderground v.1.15,2013-06-05 06:15:00,
2013-06-05 01:25:00,59.9,49.7,30.02,WNW,291,1.0,-999.0,69,0.00,,,0.00,Wunderground v.1.15,2013-06-05 06:25:00,
2013-06-05 01:30:00,59.6,49.4,30.02,WNW,283,0.0,-999.0,69,0.00,,,0.00,Wunderground v.1.15,2013-06-05 06:30:00,
2013-06-05 01:40:00,59.2,48.6,30.01,NW,316,1.0,-999.0,68,0.00,,,0.00,Wunderground v.1.15,2013-06-05 06:40:00,
2013-06-05 01:50:00,59.0,48.4,30.01,NW,309,1.0,-999.0,68,0.00,,,0.00,Wunderground v.1.15,2013-06-05 06:50:00,
2013-06-05 01:55:00,58.8,47.9,30.01,NW,309,1.0,-999.0,67,0.00,,,0.00,Wunderground v.1.15,2013-06-05 06:55:00,
2013-06-05 02:05:00,58.4,47.9,30.02,NW,316,2.0,-999.0,68,0.00,,,0.00,Wunderground v.1.15,2013-06-05 07:05:00,
2013-06-05 02:10:00,58.2,47.7,30.02,WNW,285,2.0,-999.0,68,0.00,,,0.00,Wunderground v.1.15,2013-06-05 07:10:00,
2013-06-05 02:20:00,58.0,47.5,30.02,WNW,302,2.0,-999.0,68,0.00,,,0.00,Wunderground v.1.15,2013-06-05 07:20:00,
2013-06-05 02:30:00,57.8,47.7,30.02,NW,322,1.0,-999.0,69,0.00,,,0.00,Wunderground v.1.15,2013-06-05 07:30:00,
2013-06-05 02:35:00,57.6,47.9,30.02,NW,305,1.0,-999.0,70,0.00,,,0.00,Wunderground v.1.15,2013-06-05 07:35:00,
2013-06-05 02:45:00,57.2,47.9,30.02,NNW,345,2.0,-999.0,71,0.00,,,0.00,Wunderground v.1.15,2013-06-05 07:45:00,
2013-06-05 02:55:00,57.0,48.1,30.03,NW,307,2.0,-999.0,72,0.00,,,0.00,Wunderground v.1.15,2013-06-05 07:55:00,
2013-06-05 03:05:00,56.5,49.0,30.03,WNW,300,1.0,-999.0,76,0.00,,,0.00,Wunderground v.1.15,2013-06-05 08:05:00,
2013-06-05 03:15:00,55.7,48.9,30.02,NW,310,1.0,-999.0,78,0.00,,,0.01,Wunderground v.1.15,2013-06-05 08:15:00,
2013-06-05 03:25:00,55.1,48.0,30.00,NW,317,1.0,-999.0,77,0.00,,,0.01,Wunderground v.1.15,2013-06-05 08:25:00,
2013-06-05 03:35:00,54.9,47.5,30.01,NW,312,1.0,-999.0,76,0.00,,,0.01,Wunderground v.1.15,2013-06-05 08:35:00,
2013-06-05 03:45:00,54.9,47.5,30.01,WNW,300,2.0,-999.0,76,0.00,,,0.01,Wunderground v.1.15,2013-06-05 08:45:00,
2013-06-05 03:55:00,54.8,46.7,30.02,NNE,19,2.0,-999.0,74,0.00,,,0.01,Wunderground v.1.15,2013-06-05 08:55:00,
2013-06-05 04:05:00,54.8,46.7,30.02,NW,314,2.0,-999.0,74,0.00,,,0.01,Wunderground v.1.15,2013-06-05 09:05:00,
2013-06-05 04:15:00,54.7,46.9,30.03,NW,305,2.0,-999.0,75,0.00,,,0.01,Wunderground v.1.15,2013-06-05 09:15:00,
2013-06-05 04:25:00,54.4,47.0,30.03,NW,305,1.0,-999.0,76,0.00,,,0.01,Wunderground v.1.15,2013-06-05 09:25:00,
2013-06-05 04:30:00,54.3,46.9,30.03,WNW,291,1.0,-999.0,76,0.00,,,0.01,Wunderground v.1.15,2013-06-05 09:30:00,
2013-06-05 04:40:00,53.9,47.2,30.03,NW,307,1.0,-999.0,78,0.00,,,0.01,Wunderground v.1.15,2013-06-05 09:40:00,
2013-06-05 04:45:00,53.7,47.3,30.02,NW,311,0.0,-999.0,79,0.00,,,0.02,Wunderground v.1.15,2013-06-05 09:45:00,
2013-06-05 04:55:00,53.2,47.2,30.01,WNW,300,0.0,-999.0,80,0.00,,,0.02,Wunderground v.1.15,2013-06-05 09:55:00,
2013-06-05 05:00:00,53.0,47.0,30.02,NW,321,1.0,-999.0,80,0.00,,,0.02,Wunderground v.1.15,2013-06-05 10:00:00,
2013-06-05 05:05:00,52.7,47.4,30.02,NW,309,1.0,-999.0,82,0.00,,,0.02,Wunderground v.1.15,2013-06-05 10:05:00,
2013-06-05 05:15:00,52.4,47.1,30.01,NW,321,1.0,-999.0,82,0.00,,,0.02,Wunderground v.1.15,2013-06-05 10:15:00,
2013-06-05 05:25:00,52.1,46.4,30.00,NW,326,0.0,-999.0,81,0.00,,,0.02,Wunderground v.1.15,2013-06-05 10:25:00,
2013-06-05 05:35:00,51.9,46.3,30.00,NW,314,0.0,-999.0,81,0.00,,,0.02,Wunderground v.1.15,2013-06-05 10:35:00,
2013-06-05 05:40:00,51.8,46.2,30.00,NW,312,0.0,-999.0,81,0.00,,,0.02,Wunderground v.1.15,2013-06-05 10:40:00,
2013-06-05 05:45:00,51.9,45.9,30.01,NW,311,0.0,-999.0,80,0.00,,,0.02,Wunderground v.1.15,2013-06-05 10:45:00,
2013-06-05 05:55:00,51.9,45.9,30.01,NW,319,1.0,-999.0,80,0.00,,,0.02,Wunderground v.1.15,2013-06-05 10:55:00,
2013-06-05 06:00:00,52.0,45.7,30.01,NW,314,1.0,-999.0,79,0.00,,,0.02,Wunderground v.1.15,2013-06-05 11:00:00,
2013-06-05 06:10:00,52.0,45.7,30.02,NW,309,0.0,-999.0,79,0.00,,,0.02,Wunderground v.1.15,2013-06-05 11:10:00,
2013-06-05 06:15:00,52.1,45.8,30.02,NNW,328,0.0,-999.0,79,0.00,,,0.02,Wunderground v.1.15,2013-06-05 11:15:00,
2013-06-05 06:20:00,52.3,45.6,30.02,NW,321,1.0,-999.0,78,0.00,,,0.02,Wunderground v.1.15,2013-06-05 11:20:00,
2013-06-05 06:30:00,52.5,45.5,30.03,WNW,291,1.0,-999.0,77,0.00,,,0.02,Wunderground v.1.15,2013-06-05 11:30:00,
2013-06-05 06:35:00,52.6,45.6,30.03,WNW,301,1.0,-999.0,77,0.00,,,0.02,Wunderground v.1.15,2013-06-05 11:35:00,
2013-06-05 06:45:00,52.8,45.8,30.04,NW,312,1.0,-999.0,77,0.00,,,0.02,Wunderground v.1.15,2013-06-05 11:45:00,
2013-06-05 06:55:00,52.9,45.9,30.04,WNW,298,0.0,-999.0,77,0.00,,,0.02,Wunderground v.1.15,2013-06-05 11:55:00,
2013-06-05 07:05:00,53.0,46.0,30.05,WNW,300,1.0,-999.0,77,0.00,,,0.02,Wunderground v.1.15,2013-06-05 12:05:00,
2013-06-05 07:15:00,53.0,46.3,30.05,NW,308,0.0,-999.0,78,0.00,,,0.02,Wunderground v.1.15,2013-06-05 12:15:00,
2013-06-05 07:25:00,53.1,46.1,30.06,NW,305,0.0,-999.0,77,0.00,,,0.02,Wunderground v.1.15,2013-06-05 12:25:00,
2013-06-05 07:30:00,53.2,46.2,30.05,NW,304,0.0,-999.0,77,0.00,,,0.02,Wunderground v.1.15,2013-06-05 12:30:00,
2013-06-05 07:35:00,53.3,46.3,30.05,NW,310,0.0,-999.0,77,0.00,,,0.02,Wunderground v.1.15,2013-06-05 12:35:00,
2013-06-05 07:45:00,53.6,46.6,30.05,WNW,287,0.0,-999.0,77,0.00,,,0.02,Wunderground v.1.15,2013-06-05 12:45:00,
2013-06-05 07:55:00,54.0,47.0,30.05,NW,312,0.0,-999.0,77,0.00,,,0.02,Wunderground v.1.15,2013-06-05 12:55:00,
2013-06-05 08:05:00,54.9,47.5,30.05,WNW,298,1.0,-999.0,76,0.00,,,0.02,Wunderground v.1.15,2013-06-05 13:05:00,
2013-06-05 08:15:00,55.0,46.9,30.05,WNW,292,2.0,-999.0,74,0.00,,,0.02,Wunderground v.1.15,2013-06-05 13:15:00,
2013-06-05 08:25:00,54.7,46.2,30.05,NW,305,3.0,-999.0,73,0.00,,,0.02,Wunderground v.1.15,2013-06-05 13:25:00,
2013-06-05 08:35:00,54.6,46.5,30.04,SW,234,3.0,-999.0,74,0.00,,,0.02,Wunderground v.1.15,2013-06-05 13:35:00,
2013-06-05 08:45:00,55.1,47.0,30.04,NW,312,2.0,-999.0,74,0.00,,,0.02,Wunderground v.1.15,2013-06-05 13:45:00,
2013-06-05 08:55:00,55.7,46.8,30.04,NW,316,2.0,-999.0,72,0.00,,,0.02,Wunderground v.1.15,2013-06-05 13:55:00,
2013-06-05 09:00:00,56.3,47.4,30.04,NW,319,3.0,-999.0,72,0.00,,,0.02,Wunderground v.1.15,2013-06-05 14:00:00,
2013-06-05 09:10:00,57.2,47.1,30.04,WNW,290,2.0,-999.0,69,0.00,,,0.02,Wunderground v.1.15,2013-06-05 14:10:00,
2013-06-05 09:15:00,57.5,47.0,30.04,NW,308,2.0,-999.0,68,0.00,,,0.02,Wunderground v.1.15,2013-06-05 14:15:00,
2013-06-05 09:25:00,57.9,46.2,30.04,NW,326,4.0,-999.0,65,0.00,,,0.02,Wunderground v.1.15,2013-06-05 14:25:00,
2013-06-05 09:30:00,58.1,46.0,30.03,NW,309,4.0,-999.0,64,0.00,,,0.02,Wunderground v.1.15,2013-06-05 14:30:00,
2013-06-05 09:35:00,58.4,46.7,30.03,WNW,291,4.0,-999.0,65,0.00,,,0.02,Wunderground v.1.15,2013-06-05 14:35:00,
2013-06-05 09:45:00,59.0,46.4,30.04,NW,305,3.0,-999.0,63,0.00,,,0.02,Wunderground v.1.15,2013-06-05 14:45:00,
2013-06-05 09:55:00,59.8,46.7,30.04,NW,314,3.0,-999.0,62,0.00,,,0.02,Wunderground v.1.15,2013-06-05 14:55:00,
2013-06-05 10:05:00,59.2,46.2,30.04,NW,319,3.0,-999.0,62,0.00,,,0.02,Wunderground v.1.15,2013-06-05 15:05:00,
2013-06-05 10:10:00,59.3,46.3,30.03,NW,321,4.0,-999.0,62,0.00,,,0.02,Wunderground v.1.15,2013-06-05 15:10:00,
2013-06-05 10:15:00,59.7,47.5,30.03,NW,306,3.0,-999.0,64,0.00,,,0.02,Wunderground v.1.15,2013-06-05 15:15:00,
2013-06-05 10:25:00,59.4,46.4,30.03,NW,313,4.0,-999.0,62,0.00,,,0.02,Wunderground v.1.15,2013-06-05 15:25:00,
2013-06-05 10:30:00,59.8,46.7,30.03,NW,315,4.0,-999.0,62,0.00,,,0.02,Wunderground v.1.15,2013-06-05 15:30:00,
2013-06-05 10:35:00,60.2,47.1,30.03,West,280,4.0,-999.0,62,0.00,,,0.02,Wunderground v.1.15,2013-06-05 15:35:00,
2013-06-05 10:45:00,59.6,46.6,30.03,NW,316,4.0,-999.0,62,0.00,,,0.02,Wunderground v.1.15,2013-06-05 15:45:00,
2013-06-05 10:55:00,59.6,47.0,30.03,NNW,330,3.0,-999.0,63,0.00,,,0.02,Wunderground v.1.15,2013-06-05 15:55:00,
2013-06-05 11:05:00,59.6,47.4,30.03,NW,314,3.0,-999.0,64,0.00,,,0.02,Wunderground v.1.15,2013-06-05 16:05:00,
2013-06-05 11:15:00,59.5,47.3,30.03,West,270,3.0,-999.0,64,0.00,,,0.02,Wunderground v.1.15,2013-06-05 16:15:00,
2013-06-05 11:25:00,59.7,47.5,30.03,WNW,298,3.0,-999.0,64,0.00,,,0.02,Wunderground v.1.15,2013-06-05 16:25:00,
2013-06-05 11:35:00,59.9,47.3,30.03,NW,306,3.0,-999.0,63,0.00,,,0.02,Wunderground v.1.15,2013-06-05 16:35:00,
2013-06-05 11:45:00,60.7,47.2,30.03,NNE,25,4.0,-999.0,61,0.00,,,0.02,Wunderground v.1.15,2013-06-05 16:45:00,
2013-06-05 11:55:00,61.9,48.3,30.02,WNW,297,3.0,-999.0,61,0.00,,,0.02,Wunderground v.1.15,2013-06-05 16:55:00,
2013-06-05 12:00:00,61.5,48.4,30.03,NNW,331,3.0,-999.0,62,0.00,,,0.02,Wunderground v.1.15,2013-06-05 17:00:00,
2013-06-05 12:10:00,61.3,47.3,30.03,NW,310,3.0,-999.0,60,0.00,,,0.02,Wunderground v.1.15,2013-06-05 17:10:00,
2013-06-05 12:20:00,61.6,47.6,30.02,NW,305,3.0,-999.0,60,0.00,,,0.02,Wunderground v.1.15,2013-06-05 17:20:00,
2013-06-05 12:30:00,61.8,47.8,30.03,NW,320,4.0,-999.0,60,0.00,,,0.02,Wunderground v.1.15,2013-06-05 17:30:00,
2013-06-05 12:35:00,62.5,49.3,30.03,NW,314,3.0,-999.0,62,0.00,,,0.02,Wunderground v.1.15,2013-06-05 17:35:00,
2013-06-05 12:45:00,62.8,47.3,30.03,WNW,285,3.0,-999.0,57,0.00,,,0.02,Wunderground v.1.15,2013-06-05 17:45:00,
2013-06-05 12:50:00,63.4,49.3,30.02,NNE,31,2.0,-999.0,60,0.00,,,0.02,Wunderground v.1.15,2013-06-05 17:50:00,
2013-06-05 12:55:00,63.7,49.1,30.02,NW,319,2.0,-999.0,59,0.00,,,0.02,Wunderground v.1.15,2013-06-05 17:55:00,
2013-06-05 13:05:00,63.7,48.6,30.03,NW,309,2.0,-999.0,58,0.00,,,0.02,Wunderground v.1.15,2013-06-05 18:05:00,
2013-06-05 13:10:00,63.0,48.0,30.03,NW,326,3.0,-999.0,58,0.00,,,0.02,Wunderground v.1.15,2013-06-05 18:10:00,
2013-06-05 13:15:00,62.9,48.8,30.03,NNW,333,3.0,-999.0,60,0.00,,,0.02,Wunderground v.1.15,2013-06-05 18:15:00,
2013-06-05 13:25:00,62.6,48.5,30.03,NW,304,3.0,-999.0,60,0.00,,,0.02,Wunderground v.1.15,2013-06-05 18:25:00,
2013-06-05 13:35:00,62.5,48.9,30.02,NNW,340,2.0,-999.0,61,0.00,,,0.02,Wunderground v.1.15,2013-06-05 18:35:00,
2013-06-05 13:40:00,62.5,48.4,30.03,WNW,300,3.0,-999.0,60,0.00,,,0.02,Wunderground v.1.15,2013-06-05 18:40:00,
2013-06-05 13:45:00,62.3,48.2,30.02,NNW,344,3.0,-999.0,60,0.00,,,0.02,Wunderground v.1.15,2013-06-05 18:45:00,
2013-06-05 13:55:00,62.5,48.4,30.02,WNW,290,2.0,-999.0,60,0.00,,,0.02,Wunderground v.1.15,2013-06-05 18:55:00,
2013-06-05 14:00:00,62.3,48.7,30.02,NW,315,3.0,-999.0,61,0.00,,,0.02,Wunderground v.1.15,2013-06-05 19:00:00,
2013-06-05 14:05:00,62.5,49.3,30.02,West,259,2.0,-999.0,62,0.00,,,0.02,Wunderground v.1.15,2013-06-05 19:05:00,
2013-06-05 14:15:00,62.7,49.1,30.02,WNW,301,3.0,-999.0,61,0.00,,,0.02,Wunderground v.1.15,2013-06-05 19:15:00,
2013-06-05 14:25:00,62.9,48.8,30.02,WNW,290,2.0,-999.0,60,0.00,,,0.02,Wunderground v.1.15,2013-06-05 19:25:00,
2013-06-05 14:35:00,62.8,48.7,30.01,NE,42,3.0,-999.0,60,0.00,,,0.02,Wunderground v.1.15,2013-06-05 19:35:00,
2013-06-05 14:45:00,63.0,48.9,30.01,NW,316,2.0,-999.0,60,0.00,,,0.02,Wunderground v.1.15,2013-06-05 19:45:00,
2013-06-05 14:55:00,63.9,49.7,30.01,NW,305,2.0,-999.0,60,0.00,,,0.02,Wunderground v.1.15,2013-06-05 19:55:00,
2013-06-05 15:05:00,65.1,49.5,30.00,NW,309,3.0,-999.0,57,0.00,,,0.02,Wunderground v.1.15,2013-06-05 20:05:00,
2013-06-05 15:15:00,65.8,50.1,30.00,NW,317,3.0,-999.0,57,0.00,,,0.02,Wunderground v.1.15,2013-06-05 20:15:00,
2013-06-05 15:25:00,65.6,50.0,30.00,NW,318,2.0,-999.0,57,0.00,,,0.02,Wunderground v.1.15,2013-06-05 20:25:00,
2013-06-05 15:30:00,65.7,49.6,30.00,WNW,302,2.0,-999.0,56,0.00,,,0.02,Wunderground v.1.15,2013-06-05 20:30:00,
2013-06-05 15:35:00,65.4,48.8,30.00,NW,309,3.0,-999.0,55,0.00,,,0.02,Wunderground v.1.15,2013-06-05 20:35:00,
2013-06-05 15:45:00,66.1,49.5,30.00,NW,304,3.0,-999.0,55,0.00,,,0.02,Wunderground v.1.15,2013-06-05 20:45:00,
2013-06-05 15:50:00,66.2,49.1,30.00,WNW,295,3.0,-999.0,54,0.00,,,0.02,Wunderground v.1.15,2013-06-05 20:50:00,
2013-06-05 15:55:00,65.9,49.8,30.00,NW,323,3.0,-999.0,56,0.00,,,0.02,Wunderground v.1.15,2013-06-05 20:55:00,
2013-06-05 16:05:00,65.9,49.3,30.00,West,277,3.0,-999.0,55,0.00,,,0.02,Wunderground v.1.15,2013-06-05 21:05:00,
2013-06-05 16:10:00,66.4,50.7,29.99,NW,314,3.0,-999.0,57,0.00,,,0.02,Wunderground v.1.15,2013-06-05 21:10:00,
2013-06-05 16:20:00,66.1,49.5,29.99,NW,321,3.0,-999.0,55,0.00,,,0.02,Wunderground v.1.15,2013-06-05 21:20:00,
2013-06-05 16:25:00,66.2,50.0,29.99,WNW,293,3.0,-999.0,56,0.00,,,0.02,Wunderground v.1.15,2013-06-05 21:25:00,
2013-06-05 16:35:00,66.4,50.7,29.98,NW,311,2.0,-999.0,57,0.00,,,0.02,Wunderground v.1.15,2013-06-05 21:35:00,
2013-06-05 16:45:00,66.4,50.2,29.99,NW,314,1.0,-999.0,56,0.00,,,0.02,Wunderground v.1.15,2013-06-05 21:45:00,
2013-06-05 16:55:00,65.9,49.8,29.99,NW,316,2.0,-999.0,56,0.00,,,0.02,Wunderground v.1.15,2013-06-05 21:55:00,
2013-06-05 17:05:00,65.8,49.7,29.98,NW,314,2.0,-999.0,56,0.00,,,0.02,Wunderground v.1.15,2013-06-05 22:05:00,
2013-06-05 17:15:00,65.7,50.0,29.98,NW,314,3.0,-999.0,57,0.00,,,0.02,Wunderground v.1.15,2013-06-05 22:15:00,
2013-06-05 17:20:00,65.1,49.0,29.99,NW,305,3.0,-999.0,56,0.00,,,0.02,Wunderground v.1.15,2013-06-05 22:20:00,
2013-06-05 17:25:00,64.9,49.3,29.99,North,359,2.0,-999.0,57,0.00,,,0.02,Wunderground v.1.15,2013-06-05 22:25:00,
2013-06-05 17:35:00,64.9,49.3,29.99,WNW,302,2.0,-999.0,57,0.00,,,0.02,Wunderground v.1.15,2013-06-05 22:35:00,
2013-06-05 17:45:00,64.6,49.0,29.99,NW,313,3.0,-999.0,57,0.00,,,0.02,Wunderground v.1.15,2013-06-05 22:45:00,
2013-06-05 17:50:00,64.3,49.2,29.99,NW,309,2.0,-999.0,58,0.00,,,0.02,Wunderground v.1.15,2013-06-05 22:50:00,
2013-06-05 18:05:00,64.1,49.0,29.99,WNW,293,2.0,-999.0,58,0.00,,,0.02,Wunderground v.1.15,2013-06-05 23:05:00,
2013-06-05 18:15:00,64.2,49.6,29.99,NW,307,2.0,-999.0,59,0.00,,,0.02,Wunderground v.1.15,2013-06-05 23:15:00,
2013-06-05 18:25:00,64.2,49.6,29.98,NW,309,2.0,-999.0,59,0.00,,,0.02,Wunderground v.1.15,2013-06-05 23:25:00,
2013-06-05 18:30:00,64.2,48.6,29.98,WNW,303,2.0,-999.0,57,0.00,,,0.02,Wunderground v.1.15,2013-06-05 23:30:00,
2013-06-05 18:35:00,64.1,49.0,29.98,WNW,285,3.0,-999.0,58,0.00,,,0.02,Wunderground v.1.15,2013-06-05 23:35:00,
2013-06-05 18:45:00,63.9,49.3,29.98,NW,312,2.0,-999.0,59,0.00,,,0.02,Wunderground v.1.15,2013-06-05 23:45:00,
2013-06-05 18:50:00,63.8,49.6,29.98,SE,146,2.0,-999.0,60,0.00,,,0.02,Wunderground v.1.15,2013-06-05 23:50:00,
2013-06-05 18:55:00,63.8,49.6,29.98,NW,311,2.0,-999.0,60,0.00,,,0.02,Wunderground v.1.15,2013-06-05 23:55:00,
2013-06-05 19:05:00,63.8,50.1,29.98,NW,311,2.0,-999.0,61,0.00,,,0.02,Wunderground v.1.15,2013-06-06 00:05:00,
2013-06-05 19:15:00,63.8,50.1,29.98,NW,305,1.0,-999.0,61,0.00,,,0.02,Wunderground v.1.15,2013-06-06 00:15:00,
2013-06-05 19:25:00,63.6,49.9,29.98,NW,312,1.0,-999.0,61,0.00,,,0.02,Wunderground v.1.15,2013-06-06 00:25:00,
2013-06-05 19:35:00,63.5,49.4,29.98,NW,314,2.0,-999.0,60,0.00,,,0.02,Wunderground v.1.15,2013-06-06 00:35:00,
2013-06-05 19:45:00,63.2,50.0,29.99,NW,314,1.0,-999.0,62,0.00,,,0.02,Wunderground v.1.15,2013-06-06 00:45:00,
2013-06-05 19:55:00,63.1,49.9,29.99,NW,312,2.0,-999.0,62,0.00,,,0.02,Wunderground v.1.15,2013-06-06 00:55:00,
2013-06-05 20:00:00,63.1,49.9,29.99,NNW,333,2.0,-999.0,62,0.00,,,0.02,Wunderground v.1.15,2013-06-06 01:00:00,
2013-06-05 20:10:00,63.0,49.3,29.99,NW,317,2.0,-999.0,61,0.00,,,0.02,Wunderground v.1.15,2013-06-06 01:10:00,
2013-06-05 20:20:00,62.8,49.6,29.99,NW,319,2.0,-999.0,62,0.00,,,0.02,Wunderground v.1.15,2013-06-06 01:20:00,
2013-06-05 20:30:00,62.4,50.1,29.99,WNW,298,1.0,-999.0,64,0.00,,,0.02,Wunderground v.1.15,2013-06-06 01:30:00,
2013-06-05 20:35:00,62.1,49.8,29.99,NW,315,1.0,-999.0,64,0.00,,,0.02,Wunderground v.1.15,2013-06-06 01:35:00,
2013-06-05 20:45:00,61.4,49.9,29.99,WNW,302,0.0,-999.0,66,0.00,,,0.02,Wunderground v.1.15,2013-06-06 01:45:00,
2013-06-05 20:55:00,60.8,50.2,29.99,WNW,302,0.0,-999.0,68,0.00,,,0.02,Wunderground v.1.15,2013-06-06 01:55:00,
2013-06-05 21:05:00,60.1,49.9,29.99,NW,309,0.0,-999.0,69,0.00,,,0.02,Wunderground v.1.15,2013-06-06 02:05:00,
2013-06-05 21:15:00,59.5,50.1,30.00,West,280,0.0,-999.0,71,0.00,,,0.02,Wunderground v.1.15,2013-06-06 02:15:00,
2013-06-05 21:25:00,58.7,50.1,30.00,West,280,0.0,-999.0,73,0.00,,,0.02,Wunderground v.1.15,2013-06-06 02:25:00,
2013-06-05 21:30:00,58.3,50.0,30.00,West,280,0.0,-999.0,74,0.00,,,0.02,Wunderground v.1.15,2013-06-06 02:30:00,
2013-06-05 21:40:00,58.1,50.2,30.00,West,281,0.0,-999.0,75,0.00,,,0.02,Wunderground v.1.15,2013-06-06 02:40:00,
2013-06-05 21:45:00,57.9,50.0,30.00,West,281,0.0,-999.0,75,0.00,,,0.02,Wunderground v.1.15,2013-06-06 02:45:00,
2013-06-05 21:55:00,57.9,50.0,30.01,WNW,284,0.0,-999.0,75,0.00,,,0.02,Wunderground v.1.15,2013-06-06 02:55:00,
2013-06-05 22:05:00,57.9,50.0,30.01,WNW,293,0.0,-999.0,75,0.00,,,0.02,Wunderground v.1.15,2013-06-06 03:05:00,
2013-06-05 22:10:00,57.9,50.4,30.01,West,280,0.0,-999.0,76,0.00,,,0.02,Wunderground v.1.15,2013-06-06 03:10:00,
2013-06-05 22:20:00,58.0,50.5,30.01,West,278,0.0,-999.0,76,0.00,,,0.02,Wunderground v.1.15,2013-06-06 03:20:00,
2013-06-05 22:30:00,57.8,50.6,30.02,West,276,0.0,-999.0,77,0.00,,,0.02,Wunderground v.1.15,2013-06-06 03:30:00,
2013-06-05 22:35:00,57.6,50.4,30.02,West,277,0.0,-999.0,77,0.00,,,0.02,Wunderground v.1.15,2013-06-06 03:35:00,
2013-06-05 22:45:00,57.3,50.8,30.02,West,276,0.0,-999.0,79,0.00,,,0.02,Wunderground v.1.15,2013-06-06 03:45:00,
2013-06-05 22:55:00,57.2,50.7,30.02,West,276,0.0,-999.0,79,0.00,,,0.02,Wunderground v.1.15,2013-06-06 03:55:00,
2013-06-05 23:00:00,57.2,51.1,30.02,West,277,0.0,-999.0,80,0.00,,,0.02,Wunderground v.1.15,2013-06-06 04:00:00,
2013-06-05 23:05:00,57.3,51.2,30.01,West,277,0.0,-999.0,80,0.00,,,0.02,Wunderground v.1.15,2013-06-06 04:05:00,
2013-06-05 23:10:00,57.3,51.2,30.01,West,277,0.0,-999.0,80,0.00,,,0.02,Wunderground v.1.15,2013-06-06 04:10:00,
2013-06-05 23:15:00,57.3,51.2,30.01,West,277,0.0,-999.0,80,0.00,,,0.02,Wunderground v.1.15,2013-06-06 04:15:00,
2013-06-05 23:20:00,57.2,51.1,30.02,West,277,0.0,-999.0,80,0.00,,,0.02,Wunderground v.1.15,2013-06-06 04:20:00,
2013-06-05 23:25:00,57.2,51.1,30.02,West,277,0.0,-999.0,80,0.00,,,0.02,Wunderground v.1.15,2013-06-06 04:25:00,
2013-06-05 23:35:00,57.5,51.4,30.01,West,271,0.0,-999.0,80,0.00,,,0.02,Wunderground v.1.15,2013-06-06 04:35:00,
2013-06-05 23:45:00,57.9,51.4,30.01,NW,309,0.0,-999.0,79,0.00,,,0.02,Wunderground v.1.15,2013-06-06 04:45:00,
2013-06-05 23:55:00,58.6,51.4,30.01,NW,305,1.0,-999.0,77,0.00,,,0.02,Wunderground v.1.15,2013-06-06 04:55:00,